Time;durP1;ratioP1;P1;durP2;ratioP2;P2;SDS_P1;SDS_P2;PMS_P1;PMS_P2;Temp;Humidity;BMP_temperature;BMP_pressure;BME280_temperature;BME280_humidity;BME280_pressure;Samples;Min_cycle;Max_cycle;Signal;HPM_P1;HPM_P2
2023/03/08 00:02:48;;;;;;;0.45;0.45;;;;;;;;;;10384749;28;20222;-79
2023/03/08 00:07:52;;;;;;;0.40;0.40;;;;;;;;;;10371271;28;20269;-80
2023/03/08 00:12:53;;;;;;;0.73;0.30;;;;;;;;;;10399773;28;20280;-80
2023/03/08 00:17:54;;;;;;;0.30;0.30;;;;;;;;;;10407410;28;20296;-82
2023/03/08 00:22:55;;;;;;;0.40;0.40;;;;;;;;;;10390851;28;20215;-79
2023/03/08 00:27:56;;;;;;;0.40;0.40;;;;;;;;;;10395425;28;20290;-81
2023/03/08 00:32:57;;;;;;;0.63;0.40;;;;;;;;;;10403428;28;20238;-80
2023/03/08 00:37:58;;;;;;;3.78;0.60;;;;;;;;;;10394571;28;20254;-79
2023/03/08 00:42:59;;;;;;;0.40;0.40;;;;;;;;;;10399846;28;20909;-81
2023/03/08 00:48:00;;;;;;;1.00;1.00;;;;;;;;;;10394626;28;20740;-79
2023/03/08 00:53:01;;;;;;;1.63;1.40;;;;;;;;;;10401838;28;20301;-80
2023/03/08 00:58:02;;;;;;;3.80;1.38;;;;;;;;;;10391633;28;20376;-80
2023/03/08 01:03:04;;;;;;;2.72;1.92;;;;;;;;;;10422046;28;20223;-81
2023/03/08 01:08:05;;;;;;;2.70;1.35;;;;;;;;;;10363683;28;20473;-79
2023/03/08 01:13:07;;;;;;;1.40;1.40;;;;;;;;;;10368444;28;20227;-79
2023/03/08 01:18:08;;;;;;;0.90;0.90;;;;;;;;;;10410423;28;20849;-80
2023/03/08 01:23:09;;;;;;;1.00;1.00;;;;;;;;;;10376810;28;20210;-79
2023/03/08 01:28:10;;;;;;;1.65;1.10;;;;;;;;;;10398330;28;20276;-80
2023/03/08 01:33:11;;;;;;;1.10;1.10;;;;;;;;;;10391423;28;20646;-81
2023/03/08 01:38:12;;;;;;;2.88;1.10;;;;;;;;;;10387487;28;20222;-81
2023/03/08 01:43:21;;;;;;;1.45;1.35;;;;;;;;;;10396862;28;20219;-80
2023/03/08 01:48:25;;;;;;;1.10;1.10;;;;;;;;;;10395042;28;20218;-78
2023/03/08 01:53:34;;;;;;;1.67;1.00;;;;;;;;;;10388293;28;20579;-77
2023/03/08 01:58:35;;;;;;;0.85;0.85;;;;;;;;;;10353874;28;20306;-79
2023/03/08 02:03:36;;;;;;;4.07;1.38;;;;;;;;;;10337050;28;20220;-80
2023/03/08 02:08:38;;;;;;;1.60;1.60;;;;;;;;;;10378320;28;20219;-80
2023/03/08 02:13:39;;;;;;;1.63;1.52;;;;;;;;;;10362257;28;20269;-78
2023/03/08 02:18:51;;;;;;;1.75;1.50;;;;;;;;;;10362113;28;20735;-80
2023/03/08 02:23:52;;;;;;;1.73;1.55;;;;;;;;;;10349062;28;20216;-81
2023/03/08 02:28:53;;;;;;;2.17;1.42;;;;;;;;;;10337300;28;20315;-81
2023/03/08 02:33:55;;;;;;;1.65;1.55;;;;;;;;;;10345048;28;20230;-80
2023/03/08 02:38:56;;;;;;;3.85;1.63;;;;;;;;;;10405881;28;20272;-82
2023/03/08 02:43:57;;;;;;;2.50;1.75;;;;;;;;;;10390883;28;20219;-78
2023/03/08 02:48:58;;;;;;;2.40;1.60;;;;;;;;;;10411577;28;20782;-80
2023/03/08 02:54:01;;;;;;;1.95;1.85;;;;;;;;;;10377533;28;20300;-80
2023/03/08 02:59:03;;;;;;;1.70;1.60;;;;;;;;;;10392671;28;20219;-80
2023/03/08 03:04:04;;;;;;;4.07;1.83;;;;;;;;;;10381335;28;20218;-81
2023/03/08 03:09:07;;;;;;;2.05;1.83;;;;;;;;;;10390958;28;21266;-82
2023/03/08 03:14:08;;;;;;;1.88;1.77;;;;;;;;;;10386595;28;20307;-81
2023/03/08 03:19:14;;;;;;;2.28;1.90;;;;;;;;;;10347625;28;20216;-80
2023/03/08 03:24:15;;;;;;;1.92;1.83;;;;;;;;;;10383625;28;20944;-80
2023/03/08 03:29:25;;;;;;;1.52;1.42;;;;;;;;;;10395110;28;20293;-81
2023/03/08 03:34:34;;;;;;;1.63;1.60;;;;;;;;;;10379317;28;20305;-80
2023/03/08 03:39:37;;;;;;;3.83;1.73;;;;;;;;;;10409145;28;20226;-79
2023/03/08 03:44:40;;;;;;;2.17;1.55;;;;;;;;;;10375755;28;20635;-79
2023/03/08 03:49:44;;;;;;;2.83;2.05;;;;;;;;;;10379792;28;20219;-79
2023/03/08 03:54:46;;;;;;;3.53;3.15;;;;;;;;;;10380025;28;20341;-80
2023/03/08 03:59:47;;;;;;;3.67;2.78;;;;;;;;;;10375953;28;20233;-80
2023/03/08 04:04:49;;;;;;;3.80;2.50;;;;;;;;;;10358670;28;20300;-81
2023/03/08 04:09:52;;;;;;;3.05;2.08;;;;;;;;;;10340473;28;20311;-79
2023/03/08 04:14:54;;;;;;;2.97;2.53;;;;;;;;;;10332166;28;20251;-79
2023/03/08 04:19:57;;;;;;;2.42;2.22;;;;;;;;;;10345827;28;21840;-79
2023/03/08 04:24:58;;;;;;;2.55;1.80;;;;;;;;;;10396251;28;20229;-79
2023/03/08 04:30:08;;;;;;;2.33;1.98;;;;;;;;;;10390980;28;20218;-80
2023/03/08 04:35:09;;;;;;;4.22;3.00;;;;;;;;;;10384086;28;20277;-79
2023/03/08 04:40:13;;;;;;;2.30;2.20;;;;;;;;;;10384587;28;20179;-80
2023/03/08 04:45:22;;;;;;;2.92;2.17;;;;;;;;;;10401295;28;20307;-80
2023/03/08 04:50:24;;;;;;;1.80;1.70;;;;;;;;;;10378821;28;20245;-78
2023/03/08 04:55:27;;;;;;;2.20;2.00;;;;;;;;;;10396262;28;20223;-78
2023/03/08 05:00:28;;;;;;;1.83;1.73;;;;;;;;;;10407148;28;20777;-78
2023/03/08 05:05:30;;;;;;;4.63;1.50;;;;;;;;;;10394230;28;20226;-80
2023/03/08 05:10:32;;;;;;;1.50;1.40;;;;;;;;;;10375783;28;20227;-79
2023/03/08 05:15:34;;;;;;;2.35;2.05;;;;;;;;;;10377770;28;21115;-79
2023/03/08 05:20:37;;;;;;;2.70;1.70;;;;;;;;;;10388295;28;20737;-79
2023/03/08 05:25:42;;;;;;;2.83;1.92;;;;;;;;;;10371192;28;20230;-79
2023/03/08 05:30:44;;;;;;;2.58;2.33;;;;;;;;;;10402572;28;20311;-81
2023/03/08 05:35:52;;;;;;;2.25;1.98;;;;;;;;;;10411829;28;20220;-79
2023/03/08 05:40:53;;;;;;;2.63;1.90;;;;;;;;;;10384058;28;20347;-80
2023/03/08 05:45:56;;;;;;;4.72;2.13;;;;;;;;;;10372421;28;20756;-81
2023/03/08 05:50:58;;;;;;;2.15;1.50;;;;;;;;;;10398936;28;20422;-80
2023/03/08 05:56:18;;;;;;;2.17;1.95;;;;;;;;;;10383302;28;20759;-81
2023/03/08 06:01:28;;;;;;;5.03;2.40;;;;;;;;;;10396165;28;20262;-78
2023/03/08 06:06:35;;;;;;;2.08;1.58;;;;;;;;;;10383641;28;20252;-79
2023/03/08 06:11:38;;;;;;;2.22;2.13;;;;;;;;;;10387898;28;20268;-78
2023/03/08 06:16:40;;;;;;;3.28;2.08;;;;;;;;;;10386011;28;20276;-79
2023/03/08 06:21:43;;;;;;;1.90;1.75;;;;;;;;;;10405466;28;20275;-81
2023/03/08 06:26:44;;;;;;;2.05;1.92;;;;;;;;;;10418761;28;21167;-81
2023/03/08 06:31:45;;;;;;;5.35;2.17;;;;;;;;;;10416818;28;20595;-81
2023/03/08 06:36:50;;;;;;;3.85;2.10;;;;;;;;;;10408752;28;20223;-80
2023/03/08 06:41:52;;;;;;;1.83;1.73;;;;;;;;;;10409877;28;20227;-77
2023/03/08 06:46:53;;;;;;;3.70;2.17;;;;;;;;;;10400624;28;21207;-79
2023/03/08 06:51:55;;;;;;;2.33;2.13;;;;;;;;;;10399004;28;20300;-81
2023/03/08 06:56:56;;;;;;;1.80;1.70;;;;;;;;;;10391746;28;20523;-81
2023/03/08 07:01:57;;;;;;;4.03;2.33;;;;;;;;;;10394249;28;20926;-81
2023/03/08 07:06:58;;;;;;;1.90;1.80;;;;;;;;;;10415852;28;20716;-80
2023/03/08 07:11:59;;;;;;;2.63;1.63;;;;;;;;;;10399770;28;20313;-80
2023/03/08 07:17:00;;;;;;;1.92;1.55;;;;;;;;;;10395215;28;20231;-83
2023/03/08 07:22:01;;;;;;;1.58;1.48;;;;;;;;;;10385304;28;20273;-80
2023/03/08 07:27:03;;;;;;;1.65;1.55;;;;;;;;;;10406026;28;20219;-83
2023/03/08 07:32:04;;;;;;;1.50;1.40;;;;;;;;;;10396716;28;20223;-83
2023/03/08 07:37:06;;;;;;;2.22;2.03;;;;;;;;;;10396578;28;20818;-83
2023/03/08 07:42:07;;;;;;;1.55;1.45;;;;;;;;;;10398245;28;20774;-83
2023/03/08 07:47:08;;;;;;;2.97;1.98;;;;;;;;;;10398303;28;20223;-83
2023/03/08 07:52:09;;;;;;;1.73;1.55;;;;;;;;;;10401464;28;20295;-83
2023/03/08 07:57:14;;;;;;;1.60;1.50;;;;;;;;;;10388031;28;20230;-83
2023/03/08 08:02:15;;;;;;;1.25;1.23;;;;;;;;;;10418135;28;20221;-81
2023/03/08 08:07:16;;;;;;;2.28;1.88;;;;;;;;;;10406487;28;20214;-84
2023/03/08 08:12:17;;;;;;;1.85;1.75;;;;;;;;;;10388115;28;20230;-83
2023/03/08 08:17:21;;;;;;;1.15;1.05;;;;;;;;;;10377210;28;20252;-82
2023/03/08 08:22:22;;;;;;;2.13;1.58;;;;;;;;;;10369817;28;20222;-81
2023/03/08 08:27:24;;;;;;;2.30;2.10;;;;;;;;;;10378653;28;20242;-83
2023/03/08 08:32:25;;;;;;;1.63;1.52;;;;;;;;;;10385553;28;20338;-81
2023/03/08 08:37:26;;;;;;;1.75;1.65;;;;;;;;;;10386771;28;20215;-82
2023/03/08 08:42:27;;;;;;;2.28;2.08;;;;;;;;;;10408650;28;20219;-82
2023/03/08 08:47:29;;;;;;;2.72;2.20;;;;;;;;;;10379647;28;20632;-81
2023/03/08 08:52:29;;;;;;;3.72;2.78;;;;;;;;;;10379430;28;20242;-81
2023/03/08 08:57:31;;;;;;;2.65;2.45;;;;;;;;;;10393967;28;20220;-82
2023/03/08 09:02:32;;;;;;;2.50;1.95;;;;;;;;;;10406087;28;20839;-80
2023/03/08 09:07:33;;;;;;;2.53;1.85;;;;;;;;;;10385336;28;20897;-83
2023/03/08 09:12:35;;;;;;;2.78;2.38;;;;;;;;;;10412500;28;20241;-81
2023/03/08 09:17:36;;;;;;;2.33;1.92;;;;;;;;;;10399017;28;20218;-80
2023/03/08 09:22:37;;;;;;;2.92;2.53;;;;;;;;;;10385442;28;20211;-80
2023/03/08 09:27:39;;;;;;;4.47;2.78;;;;;;;;;;10376953;28;20221;-81
2023/03/08 09:32:40;;;;;;;2.22;2.13;;;;;;;;;;10410208;28;20223;-79
2023/03/08 09:37:41;;;;;;;2.75;2.60;;;;;;;;;;10370986;28;20218;-81
2023/03/08 09:42:43;;;;;;;2.78;2.25;;;;;;;;;;10400223;28;20348;-81
2023/03/08 09:47:59;;;;;;;6.38;2.80;;;;;;;;;;10412174;28;20696;-80
2023/03/08 09:53:00;;;;;;;3.75;2.42;;;;;;;;;;10394748;28;20295;-80
2023/03/08 09:58:04;;;;;;;3.20;3.00;;;;;;;;;;10382333;28;20215;-82
2023/03/08 10:03:17;;;;;;;4.00;3.20;;;;;;;;;;10366990;28;20220;-78
2023/03/08 10:08:30;;;;;;;3.55;3.28;;;;;;;;;;10371581;28;20223;-80
2023/03/08 10:13:31;;;;;;;2.90;2.78;;;;;;;;;;10403091;28;20230;-79
2023/03/08 10:18:38;;;;;;;3.30;3.00;;;;;;;;;;10400911;28;20984;-81
2023/03/08 10:23:40;;;;;;;5.93;3.05;;;;;;;;;;10398481;28;20256;-81
2023/03/08 10:28:41;;;;;;;3.35;3.05;;;;;;;;;;10400949;28;20680;-80
2023/03/08 10:33:42;;;;;;;4.18;3.22;;;;;;;;;;10419181;28;20327;-82
2023/03/08 10:38:56;;;;;;;3.92;3.63;;;;;;;;;;10356285;28;20243;-79
2023/03/08 10:43:57;;;;;;;5.32;4.22;;;;;;;;;;10367857;28;20223;-80
2023/03/08 10:49:08;;;;;;;3.15;2.85;;;;;;;;;;10341740;28;20224;-79
2023/03/08 10:54:14;;;;;;;4.05;2.97;;;;;;;;;;10354471;28;20362;-81
2023/03/08 10:59:22;;;;;;;5.05;3.22;;;;;;;;;;10393833;28;20253;-79
2023/03/08 11:04:24;;;;;;;3.60;2.55;;;;;;;;;;10346509;28;20230;-82
2023/03/08 11:09:27;;;;;;;2.95;2.67;;;;;;;;;;10364707;28;20224;-82
2023/03/08 11:14:28;;;;;;;3.03;2.83;;;;;;;;;;10362646;28;20211;-80
2023/03/08 11:19:44;;;;;;;2.72;2.53;;;;;;;;;;10355939;28;21023;-80
2023/03/08 11:24:52;;;;;;;3.67;2.42;;;;;;;;;;10406840;28;20222;-81
2023/03/08 11:30:01;;;;;;;3.25;2.95;;;;;;;;;;10334551;28;20259;-80
2023/03/08 11:35:05;;;;;;;3.45;3.10;;;;;;;;;;10410836;28;20227;-81
2023/03/08 11:40:21;;;;;;;2.58;2.35;;;;;;;;;;10399193;28;20184;-81
2023/03/08 11:45:34;;;;;;;3.40;2.58;;;;;;;;;;10386368;28;20233;-80
2023/03/08 11:50:40;;;;;;;3.55;3.35;;;;;;;;;;10382095;28;20215;-81
2023/03/08 11:55:57;;;;;;;6.28;4.65;;;;;;;;;;10376029;28;20247;-82
2023/03/08 12:01:02;;;;;;;7.72;4.90;;;;;;;;;;10377432;28;20305;-80
2023/03/08 12:06:11;;;;;;;2.88;2.30;;;;;;;;;;10395990;28;20230;-80
2023/03/08 12:11:18;;;;;;;1.20;1.20;;;;;;;;;;10390652;28;20336;-81
2023/03/08 12:16:24;;;;;;;2.63;1.88;;;;;;;;;;10406759;28;20231;-81
2023/03/08 12:21:43;;;;;;;6.40;4.15;;;;;;;;;;10383315;28;20693;-81
2023/03/08 12:26:49;;;;;;;8.30;5.13;;;;;;;;;;10401679;28;20219;-79
2023/03/08 12:31:51;;;;;;;1.38;1.38;;;;;;;;;;10381969;28;20214;-80
2023/03/08 12:36:52;;;;;;;1.48;1.48;;;;;;;;;;10390401;28;20313;-80
2023/03/08 12:42:17;;;;;;;4.20;3.28;;;;;;;;;;10400238;28;20226;-80
2023/03/08 12:47:20;;;;;;;4.65;4.25;;;;;;;;;;10383930;28;20225;-80
2023/03/08 12:52:26;;;;;;;1.75;1.70;;;;;;;;;;10394650;28;20227;-78
2023/03/08 12:57:29;;;;;;;2.03;1.92;;;;;;;;;;10409943;28;20222;-79
2023/03/08 13:02:31;;;;;;;1.70;1.67;;;;;;;;;;10384747;28;20949;-80
2023/03/08 13:07:36;;;;;;;2.20;2.10;;;;;;;;;;10380091;28;20246;-80
2023/03/08 13:12:56;;;;;;;2.75;2.55;;;;;;;;;;10399709;28;20238;-82
2023/03/08 13:18:04;;;;;;;2.28;2.17;;;;;;;;;;10382977;28;20227;-81
2023/03/08 13:23:09;;;;;;;2.08;1.98;;;;;;;;;;10410127;28;20214;-81
2023/03/08 13:28:15;;;;;;;3.17;2.55;;;;;;;;;;10399112;28;20244;-81
2023/03/08 13:33:24;;;;;;;3.35;3.15;;;;;;;;;;10378286;28;20289;-81
2023/03/08 13:38:27;;;;;;;6.88;3.08;;;;;;;;;;10396165;28;20215;-81
2023/03/08 13:43:31;;;;;;;6.70;3.22;;;;;;;;;;10393297;28;20215;-81
2023/03/08 13:48:34;;;;;;;2.83;2.63;;;;;;;;;;10387758;28;20431;-81
2023/03/08 13:53:39;;;;;;;4.13;2.45;;;;;;;;;;10383831;28;20222;-81
2023/03/08 13:58:44;;;;;;;7.47;3.22;;;;;;;;;;10369793;28;20216;-82
2023/03/08 14:03:46;;;;;;;3.60;3.28;;;;;;;;;;10331675;28;20220;-80
2023/03/08 14:08:47;;;;;;;2.83;2.63;;;;;;;;;;10351441;28;20226;-81
2023/03/08 14:13:50;;;;;;;3.42;3.05;;;;;;;;;;10349180;28;20996;-83
2023/03/08 14:18:51;;;;;;;4.43;2.90;;;;;;;;;;10354814;28;20247;-81
2023/03/08 14:23:53;;;;;;;3.35;3.05;;;;;;;;;;10377811;28;20229;-82
2023/03/08 14:29:20;;;;;;;3.80;3.50;;;;;;;;;;10365767;28;20267;-82
2023/03/08 14:34:23;;;;;;;4.20;3.38;;;;;;;;;;10402063;28;20231;-79
2023/03/08 14:39:25;;;;;;;3.78;3.40;;;;;;;;;;10390777;28;20215;-82
2023/03/08 14:44:27;;;;;;;6.10;4.07;;;;;;;;;;10403052;28;20215;-81
2023/03/08 14:49:28;;;;;;;5.63;4.68;;;;;;;;;;10384063;28;20223;-81
2023/03/08 14:54:31;;;;;;;5.65;5.13;;;;;;;;;;10417039;28;20962;-83
2023/03/08 14:59:33;;;;;;;4.50;3.70;;;;;;;;;;10380568;28;20312;-84
2023/03/08 15:04:34;;;;;;;4.15;3.70;;;;;;;;;;10396006;28;20219;-84
2023/03/08 15:09:35;;;;;;;4.30;3.53;;;;;;;;;;10400058;28;20230;-86
2023/03/08 15:14:36;;;;;;;4.18;3.78;;;;;;;;;;10363929;28;20234;-85
2023/03/08 15:19:37;;;;;;;7.30;4.15;;;;;;;;;;10389102;28;20224;-85
2023/03/08 15:24:39;;;;;;;6.15;5.13;;;;;;;;;;10395112;28;20218;-86
2023/03/08 15:29:40;;;;;;;5.45;4.72;;;;;;;;;;10388050;28;20685;-84
2023/03/08 15:34:41;;;;;;;6.68;5.07;;;;;;;;;;10405019;28;20305;-85
2023/03/08 15:39:42;;;;;;;10.15;5.88;;;;;;;;;;10387366;28;20235;-84
2023/03/08 15:45:22;;;;;;;5.22;4.68;;;;;;;;;;9790997;27;19075774;-83
2023/03/08 15:51:10;;;;;;;5.00;4.50;;;;;;;;;;10393108;28;20223;-84
2023/03/08 15:56:24;;;;;;;3.75;3.45;;;;;;;;;;10388764;28;20220;-86
2023/03/08 16:07:38;;;;;;;5.15;4.13;;;;;;;;;;10395952;28;20214;-83
2023/03/08 16:12:41;;;;;;;3.30;3.03;;;;;;;;;;10386436;28;20310;-80
2023/03/08 16:17:43;;;;;;;5.10;3.80;;;;;;;;;;10393017;28;20219;-81
2023/03/08 16:22:44;;;;;;;5.78;3.80;;;;;;;;;;10370785;28;20221;-82
2023/03/08 16:27:45;;;;;;;4.40;3.13;;;;;;;;;;10362210;28;20223;-85
2023/03/08 16:32:46;;;;;;;5.25;3.97;;;;;;;;;;10373930;28;20673;-84
2023/03/08 16:37:52;;;;;;;5.72;3.53;;;;;;;;;;10390764;28;20222;-84
2023/03/08 16:42:53;;;;;;;4.65;3.60;;;;;;;;;;10400948;28;20253;-84
2023/03/08 16:47:54;;;;;;;5.47;4.45;;;;;;;;;;10379218;28;20233;-82
2023/03/08 16:52:57;;;;;;;6.25;4.18;;;;;;;;;;10384854;28;20214;-84
2023/03/08 16:57:58;;;;;;;5.28;4.00;;;;;;;;;;10352800;28;20230;-83
2023/03/08 17:02:59;;;;;;;7.75;3.92;;;;;;;;;;10345607;28;20230;-83
2023/03/08 17:08:00;;;;;;;5.25;4.28;;;;;;;;;;10363146;28;20224;-80
2023/03/08 17:13:01;;;;;;;5.38;3.60;;;;;;;;;;10375424;28;20212;-83
2023/03/08 17:18:02;;;;;;;4.28;3.55;;;;;;;;;;10368243;28;20219;-85
2023/03/08 17:23:03;;;;;;;3.95;3.58;;;;;;;;;;10375880;28;20224;-85
2023/03/08 17:28:05;;;;;;;3.35;3.10;;;;;;;;;;10386799;28;20212;-85
2023/03/08 17:33:06;;;;;;;3.47;2.35;;;;;;;;;;10381037;28;20308;-87
2023/03/08 17:38:07;;;;;;;3.28;2.67;;;;;;;;;;10399729;28;20212;-83
2023/03/08 17:43:08;;;;;;;6.88;4.35;;;;;;;;;;10374591;28;20651;-84
2023/03/08 17:48:10;;;;;;;4.13;3.53;;;;;;;;;;10372762;28;20238;-84
2023/03/08 17:53:11;;;;;;;4.05;3.38;;;;;;;;;;10369641;28;20216;-83
2023/03/08 17:58:13;;;;;;;4.03;3.67;;;;;;;;;;10390974;28;20269;-86
2023/03/08 18:03:14;;;;;;;5.93;3.75;;;;;;;;;;10390443;28;20246;-85
2023/03/08 18:08:15;;;;;;;6.03;4.13;;;;;;;;;;10391552;28;20295;-84
2023/03/08 18:13:15;;;;;;;5.28;3.92;;;;;;;;;;10360794;28;20231;-83
2023/03/08 18:18:17;;;;;;;4.63;2.92;;;;;;;;;;10359260;28;20219;-81
2023/03/08 18:23:19;;;;;;;4.75;3.38;;;;;;;;;;10347901;28;20216;-83
2023/03/08 18:28:20;;;;;;;4.70;3.08;;;;;;;;;;10361566;28;20247;-82
2023/03/08 18:33:21;;;;;;;7.15;3.95;;;;;;;;;;10382349;28;20262;-85
2023/03/08 18:38:23;;;;;;;6.45;3.38;;;;;;;;;;10348602;28;20207;-82
2023/03/08 18:43:24;;;;;;;5.75;4.18;;;;;;;;;;10361908;28;20322;-81
2023/03/08 18:48:25;;;;;;;8.68;4.68;;;;;;;;;;10360059;28;20725;-82
2023/03/08 18:53:26;;;;;;;4.95;4.03;;;;;;;;;;10353682;28;20211;-83
2023/03/08 18:58:27;;;;;;;5.45;3.03;;;;;;;;;;10355516;28;20303;-88
2023/03/08 19:03:29;;;;;;;7.20;4.05;;;;;;;;;;10385604;28;20792;-84
2023/03/08 19:08:30;;;;;;;4.25;3.67;;;;;;;;;;10349196;28;20302;-84
2023/03/08 19:13:31;;;;;;;8.20;4.38;;;;;;;;;;10358747;28;20233;-85
2023/03/08 19:18:33;;;;;;;6.70;4.22;;;;;;;;;;10344091;28;20684;-86
2023/03/08 19:23:34;;;;;;;11.98;6.57;;;;;;;;;;10342549;28;20866;-84
2023/03/08 19:28:34;;;;;;;9.73;5.05;;;;;;;;;;10347641;28;20245;-83
2023/03/08 19:33:35;;;;;;;8.45;4.22;;;;;;;;;;10353966;28;20258;-82
2023/03/08 19:38:36;;;;;;;5.82;3.85;;;;;;;;;;10336398;28;20768;-81
2023/03/08 19:43:37;;;;;;;4.20;3.63;;;;;;;;;;10357316;28;20219;-82
2023/03/08 19:48:38;;;;;;;4.28;3.22;;;;;;;;;;10357277;28;20664;-82
2023/03/08 19:53:40;;;;;;;4.13;3.28;;;;;;;;;;10346312;28;20245;-84
2023/03/08 19:58:41;;;;;;;5.55;4.07;;;;;;;;;;10356838;28;20239;-85
2023/03/08 20:03:42;;;;;;;5.75;3.75;;;;;;;;;;10351462;28;20271;-84
2023/03/08 20:08:43;;;;;;;5.97;4.03;;;;;;;;;;10342872;28;20608;-85
2023/03/08 20:13:44;;;;;;;4.10;3.60;;;;;;;;;;10358370;28;20859;-85
2023/03/08 20:18:48;;;;;;;5.38;4.47;;;;;;;;;;10346480;28;20219;-85
2023/03/08 20:23:54;;;;;;;6.85;4.28;;;;;;;;;;10338677;28;20911;-84
2023/03/08 20:28:55;;;;;;;3.88;3.25;;;;;;;;;;10327701;28;20220;-83
2023/03/08 20:33:57;;;;;;;5.13;3.47;;;;;;;;;;10352210;28;20215;-83
2023/03/08 20:38:58;;;;;;;4.07;3.67;;;;;;;;;;10357927;28;20768;-82
2023/03/08 20:43:59;;;;;;;6.45;3.75;;;;;;;;;;10367110;28;20230;-84
2023/03/08 20:49:01;;;;;;;4.50;3.45;;;;;;;;;;10360223;28;20311;-78
2023/03/08 20:54:03;;;;;;;4.13;3.30;;;;;;;;;;10350515;28;20220;-80
2023/03/08 20:59:04;;;;;;;5.90;3.58;;;;;;;;;;10358713;28;20230;-80
2023/03/08 21:04:05;;;;;;;5.05;3.78;;;;;;;;;;10363663;28;20251;-78
2023/03/08 21:09:06;;;;;;;4.00;2.97;;;;;;;;;;10343506;28;20703;-78
2023/03/08 21:14:07;;;;;;;6.60;3.25;;;;;;;;;;10342414;28;20223;-80
2023/03/08 21:19:09;;;;;;;5.30;3.40;;;;;;;;;;10367767;28;20224;-80
2023/03/08 21:24:12;;;;;;;5.25;4.28;;;;;;;;;;10352975;28;20587;-80
2023/03/08 21:29:14;;;;;;;5.18;3.75;;;;;;;;;;10365538;28;20258;-82
2023/03/08 21:34:16;;;;;;;4.60;3.60;;;;;;;;;;10368882;28;20824;-79
2023/03/08 21:39:17;;;;;;;6.43;3.90;;;;;;;;;;10357868;28;20265;-80
2023/03/08 21:44:19;;;;;;;4.40;3.45;;;;;;;;;;10353411;28;20224;-80
2023/03/08 21:49:21;;;;;;;8.48;4.70;;;;;;;;;;10350746;28;20250;-78
2023/03/08 21:54:23;;;;;;;6.38;3.58;;;;;;;;;;10355820;28;20749;-77
2023/03/08 21:59:25;;;;;;;6.93;4.15;;;;;;;;;;10361956;28;20705;-76
2023/03/08 22:04:27;;;;;;;5.90;3.67;;;;;;;;;;10339765;28;20231;-79
2023/03/08 22:09:28;;;;;;;4.40;2.88;;;;;;;;;;10337372;28;20568;-80
2023/03/08 22:14:29;;;;;;;5.00;3.75;;;;;;;;;;10357687;28;20216;-81
2023/03/08 22:19:30;;;;;;;5.90;3.53;;;;;;;;;;10364845;28;20220;-80
2023/03/08 22:24:31;;;;;;;6.03;3.63;;;;;;;;;;10351099;28;20269;-80
2023/03/08 22:29:33;;;;;;;5.38;3.33;;;;;;;;;;10365076;28;20638;-80
2023/03/08 22:34:34;;;;;;;3.70;3.35;;;;;;;;;;10355342;28;20250;-78
2023/03/08 22:39:36;;;;;;;5.72;3.25;;;;;;;;;;10358250;28;20223;-79
2023/03/08 22:44:37;;;;;;;6.25;3.58;;;;;;;;;;10361860;28;20765;-78
2023/03/08 22:49:38;;;;;;;5.35;3.28;;;;;;;;;;10360295;28;20215;-78
2023/03/08 22:54:40;;;;;;;6.60;3.50;;;;;;;;;;10344622;28;20219;-78
2023/03/08 22:59:44;;;;;;;5.10;3.30;;;;;;;;;;10395487;28;20222;-81
2023/03/08 23:04:45;;;;;;;5.15;3.25;;;;;;;;;;10384931;28;20302;-80
2023/03/08 23:09:46;;;;;;;6.50;3.60;;;;;;;;;;10360164;28;20287;-80
2023/03/08 23:14:46;;;;;;;4.00;3.55;;;;;;;;;;10398220;28;20246;-80
2023/03/08 23:19:51;;;;;;;4.57;3.03;;;;;;;;;;10405167;28;20697;-81
2023/03/08 23:24:53;;;;;;;2.60;2.40;;;;;;;;;;10388487;28;20806;-81
2023/03/08 23:29:54;;;;;;;4.55;2.70;;;;;;;;;;10398425;28;20685;-79
2023/03/08 23:34:55;;;;;;;8.63;2.57;;;;;;;;;;10385132;28;20223;-78
2023/03/08 23:39:56;;;;;;;4.60;2.75;;;;;;;;;;10378251;28;20222;-80
2023/03/08 23:44:57;;;;;;;4.45;2.35;;;;;;;;;;10396296;28;20880;-77
2023/03/08 23:49:58;;;;;;;3.58;2.72;;;;;;;;;;10357553;28;20684;-80
2023/03/08 23:54:59;;;;;;;4.85;3.13;;;;;;;;;;10368047;28;20228;-81
